Time;durP1;ratioP1;P1;durP2;ratioP2;P2;SDS_P1;SDS_P2;PMS_P1;PMS_P2;Temp;Humidity;BMP_temperature;BMP_pressure;BME280_temperature;BME280_humidity;BME280_pressure;Samples;Min_cycle;Max_cycle;Signal;HPM_P1;HPM_P2
2021/07/16 00:01:34;;;;;;;3.33;2.50;;;24.20;99.10;;;;;;5039025;28;20033;-88
2021/07/16 00:04:00;;;;;;;2.88;2.40;;;24.30;99.10;;;;;;5039334;28;20114;-87
2021/07/16 00:06:26;;;;;;;4.00;2.50;;;24.30;99.10;;;;;;5054901;28;20448;-88
2021/07/16 00:08:51;;;;;;;3.42;2.72;;;24.30;99.10;;;;;;5039070;28;20029;-87
2021/07/16 00:11:17;;;;;;;3.03;2.60;;;24.30;99.10;;;;;;5039128;28;20027;-88
2021/07/16 00:13:43;;;;;;;3.13;2.63;;;24.30;99.00;;;;;;5055552;28;20474;-88
2021/07/16 00:16:08;;;;;;;4.65;2.72;;;24.30;99.00;;;;;;5022229;28;20067;-88
2021/07/16 00:18:34;;;;;;;2.97;2.67;;;24.30;99.00;;;;;;5055299;28;20036;-87
2021/07/16 00:21:04;;;;;;;3.40;2.92;;;24.30;99.00;;;;;;5073749;28;20478;-88
2021/07/16 00:23:30;;;;;;;3.60;2.95;;;24.30;99.00;;;;;;5055496;28;20090;-88
2021/07/16 00:25:56;;;;;;;3.67;2.95;;;24.20;98.90;;;;;;5073593;28;20031;-88
2021/07/16 00:28:23;;;;;;;3.30;2.83;;;24.30;98.90;;;;;;5038464;28;20382;-88
2021/07/16 00:30:50;;;;;;;3.30;2.92;;;24.30;98.80;;;;;;5055960;28;20064;-88
2021/07/16 00:33:16;;;;;;;4.70;3.20;;;24.30;98.80;;;;;;5056699;28;20080;-88
2021/07/16 00:35:43;;;;;;;3.72;2.95;;;24.20;98.70;;;;;;5055232;28;20563;-88
2021/07/16 00:38:09;;;;;;;3.13;2.45;;;24.30;98.70;;;;;;5073234;28;20041;-88
2021/07/16 00:40:34;;;;;;;3.72;3.00;;;24.30;98.70;;;;;;5054787;28;20470;-88
2021/07/16 00:43:00;;;;;;;3.92;2.90;;;24.20;98.60;;;;;;5056875;28;20447;-88
2021/07/16 00:45:26;;;;;;;4.50;3.40;;;24.20;98.60;;;;;;5042418;28;20059;-88
2021/07/16 00:47:52;;;;;;;3.65;3.35;;;24.20;98.60;;;;;;5058941;28;20032;-88
2021/07/16 00:50:26;;;;;;;4.18;3.40;;;24.20;98.60;;;;;;5042606;28;20029;-87
2021/07/16 00:52:54;;;;;;;3.83;3.00;;;24.20;98.50;;;;;;5077121;28;20033;-88
2021/07/16 00:55:20;;;;;;;3.55;2.92;;;24.20;98.50;;;;;;5042300;28;20036;-89
2021/07/16 00:57:46;;;;;;;3.45;2.88;;;24.20;98.50;;;;;;5042487;28;20466;-88
2021/07/16 01:00:13;;;;;;;3.70;2.78;;;24.20;98.40;;;;;;5077037;28;20020;-88
2021/07/16 01:02:39;;;;;;;3.42;2.92;;;24.20;98.40;;;;;;5058795;28;20033;-88
2021/07/16 01:05:10;;;;;;;3.22;2.90;;;24.20;98.30;;;;;;5059019;28;20462;-88
2021/07/16 01:07:37;;;;;;;3.33;2.95;;;24.20;98.30;;;;;;5058369;28;20052;-88
2021/07/16 01:10:04;;;;;;;4.45;2.88;;;24.20;98.20;;;;;;5058890;28;20047;-88
2021/07/16 01:12:31;;;;;;;3.78;2.65;;;24.20;98.20;;;;;;5058410;28;20036;-87
2021/07/16 01:14:58;;;;;;;3.20;2.70;;;24.20;98.10;;;;;;5058690;28;20024;-88
2021/07/16 01:17:24;;;;;;;3.40;2.80;;;24.20;98.10;;;;;;5076597;28;20039;-88
2021/07/16 01:20:11;;;;;;;4.25;3.15;;;24.20;98.10;;;;;;5042231;28;20390;-88
2021/07/16 01:22:39;;;;;;;3.70;2.72;;;24.20;98.00;;;;;;5058645;28;20060;-87
2021/07/16 01:25:08;;;;;;;3.90;3.08;;;24.20;98.00;;;;;;5059463;28;20021;-88
2021/07/16 01:27:35;;;;;;;4.63;3.20;;;24.10;98.00;;;;;;5076398;28;20103;-88
2021/07/16 01:30:01;;;;;;;3.92;2.58;;;24.20;98.00;;;;;;5058372;28;20020;-88
2021/07/16 01:32:28;;;;;;;2.97;2.60;;;24.20;97.90;;;;;;5058493;28;20028;-88
2021/07/16 01:34:54;;;;;;;3.13;2.55;;;24.20;97.90;;;;;;5057992;28;20032;-88
2021/07/16 01:37:21;;;;;;;5.00;2.85;;;24.10;98.10;;;;;;5076372;28;20027;-87
2021/07/16 01:39:47;;;;;;;2.70;2.35;;;24.20;97.90;;;;;;5042866;28;20082;-88
2021/07/16 01:42:13;;;;;;;3.65;2.47;;;24.20;98.20;;;;;;5042229;28;20195;-87
2021/07/16 01:44:41;;;;;;;3.25;2.25;;;24.20;98.00;;;;;;5076045;28;20033;-88
2021/07/16 01:47:09;;;;;;;4.38;2.72;;;24.20;98.00;;;;;;5058192;28;20029;-88
2021/07/16 01:49:35;;;;;;;2.88;2.50;;;24.20;98.00;;;;;;5057773;28;20032;-88
2021/07/16 01:52:01;;;;;;;2.53;2.25;;;24.10;97.90;;;;;;5041458;28;20480;-88
2021/07/16 01:54:27;;;;;;;2.83;2.40;;;24.20;98.00;;;;;;5039935;28;20025;-88
2021/07/16 01:56:53;;;;;;;3.13;2.47;;;24.10;98.00;;;;;;5057847;28;20131;-88
2021/07/16 01:59:19;;;;;;;3.47;2.95;;;24.20;98.00;;;;;;5041263;28;20064;-88
2021/07/16 02:01:45;;;;;;;3.55;2.65;;;24.20;98.00;;;;;;5040879;28;20087;-87
2021/07/16 02:04:11;;;;;;;2.95;2.42;;;24.20;98.00;;;;;;5057636;28;20024;-88
2021/07/16 02:06:38;;;;;;;3.38;2.40;;;24.20;98.00;;;;;;5057506;28;20424;-88
2021/07/16 02:09:06;;;;;;;4.97;2.75;;;24.20;98.00;;;;;;5041673;28;20036;-88
2021/07/16 02:11:32;;;;;;;3.13;2.65;;;24.20;98.00;;;;;;5075219;28;20020;-89
2021/07/16 02:13:59;;;;;;;2.90;2.38;;;24.20;97.90;;;;;;5075612;28;20087;-88
2021/07/16 02:16:24;;;;;;;2.95;2.45;;;24.20;97.90;;;;;;5057428;28;20036;-88
2021/07/16 02:18:59;;;;;;;3.42;2.88;;;24.20;97.90;;;;;;5024210;28;20039;-88
2021/07/16 02:21:24;;;;;;;3.92;2.80;;;24.20;97.90;;;;;;5041055;28;20427;-88
2021/07/16 02:23:50;;;;;;;4.03;2.83;;;24.20;97.90;;;;;;5056986;28;20112;-88
2021/07/16 02:26:16;;;;;;;4.00;2.90;;;24.20;97.90;;;;;;5057119;28;20040;-88
2021/07/16 02:28:42;;;;;;;4.22;2.75;;;24.20;98.10;;;;;;5056927;28;20024;-88
2021/07/16 02:31:11;;;;;;;4.20;2.78;;;24.20;97.90;;;;;;5057522;28;20039;-88
2021/07/16 02:33:37;;;;;;;3.10;2.65;;;24.20;97.90;;;;;;5074845;28;20029;-88
2021/07/16 02:36:05;;;;;;;3.40;2.72;;;24.10;97.80;;;;;;5074708;28;20039;-88
2021/07/16 02:38:31;;;;;;;4.40;2.88;;;24.20;97.80;;;;;;5074604;28;20029;-89
2021/07/16 02:40:57;;;;;;;3.88;2.90;;;24.20;97.80;;;;;;5057508;28;20028;-88
2021/07/16 02:43:24;;;;;;;3.65;2.75;;;24.10;97.70;;;;;;5057050;28;20482;-87
2021/07/16 02:45:50;;;;;;;4.28;3.13;;;24.20;97.70;;;;;;5057499;28;20127;-87
2021/07/16 02:48:17;;;;;;;4.03;3.13;;;24.20;97.70;;;;;;5058775;28;20032;-87
2021/07/16 02:50:46;;;;;;;3.85;2.72;;;24.10;97.60;;;;;;5056720;28;20070;-88
2021/07/16 02:53:15;;;;;;;4.30;2.50;;;24.10;97.60;;;;;;5075274;28;20040;-87
2021/07/16 02:55:41;;;;;;;4.90;2.72;;;24.10;97.60;;;;;;5056540;28;20052;-88
2021/07/16 02:58:08;;;;;;;3.28;2.83;;;24.10;97.60;;;;;;5056989;28;20028;-87
2021/07/16 03:00:35;;;;;;;3.80;2.63;;;24.10;97.60;;;;;;5039762;28;20064;-90
2021/07/16 03:03:01;;;;;;;3.60;2.75;;;24.10;97.60;;;;;;5040406;28;20040;-88
2021/07/16 03:05:30;;;;;;;4.90;2.67;;;24.10;97.50;;;;;;5074216;28;20024;-88
2021/07/16 03:07:57;;;;;;;3.35;2.45;;;24.10;97.50;;;;;;5056191;28;20033;-88
2021/07/16 03:10:35;;;;;;;3.40;2.47;;;24.10;97.50;;;;;;5039848;28;20034;-88
2021/07/16 03:13:03;;;;;;;2.72;2.28;;;24.10;97.50;;;;;;5074458;28;20043;-87
2021/07/16 03:15:29;;;;;;;3.58;2.40;;;24.10;97.50;;;;;;5056867;28;20033;-88
2021/07/16 03:17:56;;;;;;;4.30;2.30;;;24.10;97.50;;;;;;5055945;28;20274;-88
2021/07/16 03:20:23;;;;;;;2.83;2.28;;;24.00;97.50;;;;;;5056150;28;20032;-87
2021/07/16 03:22:50;;;;;;;2.50;2.05;;;24.00;97.60;;;;;;5055828;28;20110;-88
2021/07/16 03:25:17;;;;;;;3.63;2.42;;;24.10;97.60;;;;;;5073758;28;20021;-88
2021/07/16 03:27:43;;;;;;;3.90;2.40;;;24.10;97.60;;;;;;5039222;28;20123;-88
2021/07/16 03:30:12;;;;;;;3.28;2.25;;;24.10;97.60;;;;;;5073813;28;20021;-88
2021/07/16 03:32:38;;;;;;;3.50;2.30;;;24.00;97.60;;;;;;5038851;28;20036;-89
2021/07/16 03:35:05;;;;;;;2.78;2.15;;;24.00;97.60;;;;;;5039795;28;20036;-88
2021/07/16 03:37:31;;;;;;;4.13;2.40;;;24.10;97.60;;;;;;5074800;28;20031;-87
2021/07/16 03:39:57;;;;;;;2.65;2.10;;;24.10;97.60;;;;;;5039586;28;20045;-87
2021/07/16 03:42:22;;;;;;;2.25;2.00;;;24.00;97.60;;;;;;5039783;28;20037;-88
2021/07/16 03:44:48;;;;;;;3.38;2.50;;;24.00;97.70;;;;;;5057278;28;20413;-87
2021/07/16 03:47:17;;;;;;;2.50;2.22;;;24.00;97.70;;;;;;5055757;28;20035;-88
2021/07/16 03:49:44;;;;;;;2.67;1.88;;;24.00;97.70;;;;;;5038680;28;20039;-87
2021/07/16 03:52:10;;;;;;;3.03;2.40;;;24.00;97.80;;;;;;5023052;28;20453;-88
2021/07/16 03:54:37;;;;;;;3.10;2.30;;;24.10;97.80;;;;;;5073760;28;20024;-87
2021/07/16 03:57:04;;;;;;;2.50;2.30;;;24.10;97.80;;;;;;5023153;28;20036;-88
2021/07/16 03:59:29;;;;;;;2.83;2.50;;;24.10;97.80;;;;;;5039156;28;20028;-87
2021/07/16 04:01:55;;;;;;;3.90;2.22;;;24.00;97.70;;;;;;5055394;28;20048;-87
2021/07/16 04:04:21;;;;;;;3.65;2.35;;;24.10;97.70;;;;;;5022361;28;20123;-87
2021/07/16 04:06:54;;;;;;;3.13;2.13;;;24.10;97.70;;;;;;5055147;28;20131;-87
2021/07/16 04:09:26;;;;;;;3.13;2.35;;;24.10;97.70;;;;;;5039834;28;20039;-87
2021/07/16 04:12:16;;;;;;;3.53;2.50;;;24.10;97.70;;;;;;5073228;28;20024;-88
2021/07/16 04:14:47;;;;;;;2.80;2.15;;;24.10;97.70;;;;;;5073212;28;20024;-89
2021/07/16 04:17:22;;;;;;;3.00;2.10;;;24.10;97.70;;;;;;5072450;28;20082;-87
2021/07/16 04:19:48;;;;;;;2.42;1.90;;;24.10;98.00;;;;;;5055020;28;20027;-88
2021/07/16 04:22:14;;;;;;;3.67;2.50;;;24.10;97.80;;;;;;5055185;28;20410;-88
2021/07/16 04:24:42;;;;;;;2.95;2.38;;;24.10;97.80;;;;;;5073125;28;20025;-88
2021/07/16 04:27:08;;;;;;;4.00;2.58;;;24.10;97.80;;;;;;5072418;28;20431;-87
2021/07/16 04:29:35;;;;;;;3.30;2.25;;;24.10;97.80;;;;;;5055097;28;20031;-88
2021/07/16 04:32:02;;;;;;;3.83;2.17;;;24.10;97.80;;;;;;5054636;28;20024;-88
2021/07/16 04:34:29;;;;;;;3.22;2.13;;;24.10;97.90;;;;;;5038113;28;20098;-88
2021/07/16 04:36:56;;;;;;;2.88;2.10;;;24.10;97.90;;;;;;5072691;28;20020;-88
2021/07/16 04:39:21;;;;;;;2.97;2.13;;;24.10;97.90;;;;;;5054716;28;20028;-88
2021/07/16 04:41:47;;;;;;;2.38;2.00;;;24.20;97.90;;;;;;5072860;28;20039;-88
2021/07/16 04:44:13;;;;;;;2.17;1.83;;;24.10;97.90;;;;;;5073045;28;20041;-88
2021/07/16 04:46:38;;;;;;;3.28;2.10;;;24.10;98.00;;;;;;5021844;28;20382;-87
2021/07/16 04:49:04;;;;;;;2.88;2.15;;;24.10;98.00;;;;;;5073771;28;20107;-86
2021/07/16 04:51:33;;;;;;;4.43;2.45;;;24.10;98.00;;;;;;5040607;28;20032;-88
2021/07/16 04:54:00;;;;;;;2.47;2.10;;;24.10;98.00;;;;;;5072921;28;20040;-88
2021/07/16 04:56:26;;;;;;;2.72;2.15;;;24.10;98.00;;;;;;5072648;28;20029;-88
2021/07/16 04:58:52;;;;;;;3.60;2.70;;;24.10;98.00;;;;;;5054669;28;20028;-88
2021/07/16 05:01:21;;;;;;;3.08;2.38;;;24.10;98.00;;;;;;5038959;28;20025;-86
2021/07/16 05:03:49;;;;;;;2.95;2.30;;;24.10;98.00;;;;;;5057214;28;20028;-91
2021/07/16 05:06:15;;;;;;;3.03;2.10;;;24.10;98.10;;;;;;5054324;28;20052;-88
2021/07/16 05:08:41;;;;;;;3.67;2.40;;;24.10;98.10;;;;;;5055175;28;20115;-87
2021/07/16 05:11:07;;;;;;;2.50;2.05;;;24.10;98.10;;;;;;5054261;28;20303;-88
2021/07/16 05:13:37;;;;;;;2.30;1.95;;;24.10;98.10;;;;;;5054814;28;20108;-88
2021/07/16 05:16:08;;;;;;;2.80;2.38;;;24.10;98.10;;;;;;5022068;28;20475;-87
2021/07/16 05:18:34;;;;;;;2.35;2.15;;;24.10;98.10;;;;;;5054703;28;20035;-88
2021/07/16 05:21:00;;;;;;;2.63;2.05;;;24.10;98.20;;;;;;5072373;28;20020;-88
2021/07/16 05:23:27;;;;;;;2.80;2.10;;;24.10;98.20;;;;;;5037630;28;20067;-87
2021/07/16 05:25:53;;;;;;;2.83;1.92;;;24.10;98.20;;;;;;5038124;28;20389;-87
2021/07/16 05:28:20;;;;;;;2.38;1.88;;;24.10;98.20;;;;;;5073188;28;20582;-86
2021/07/16 05:30:47;;;;;;;2.53;1.98;;;24.10;98.20;;;;;;5075633;28;20031;-87
2021/07/16 05:33:13;;;;;;;2.70;2.08;;;24.10;98.20;;;;;;5075283;28;20512;-87
2021/07/16 05:35:39;;;;;;;2.20;1.95;;;24.10;98.20;;;;;;5041472;28;20119;-87
2021/07/16 05:38:05;;;;;;;3.47;2.20;;;24.10;98.10;;;;;;5075519;28;20091;-87
2021/07/16 05:40:31;;;;;;;4.25;2.20;;;24.10;98.10;;;;;;5041661;28;20025;-88
2021/07/16 05:42:58;;;;;;;3.25;2.13;;;24.10;98.10;;;;;;5075938;28;20024;-88
2021/07/16 05:45:24;;;;;;;3.40;2.17;;;24.10;98.10;;;;;;5076041;28;20028;-88
2021/07/16 05:47:50;;;;;;;2.30;1.92;;;24.20;98.10;;;;;;5041705;28;20608;-87
2021/07/16 05:50:16;;;;;;;2.40;2.00;;;24.10;98.00;;;;;;5041132;28;20028;-86
2021/07/16 05:52:41;;;;;;;2.83;1.83;;;24.10;98.00;;;;;;5041128;28;20040;-86
2021/07/16 05:55:07;;;;;;;3.03;2.10;;;24.20;98.00;;;;;;5040981;28;20028;-87
2021/07/16 05:57:33;;;;;;;3.42;1.80;;;24.20;98.00;;;;;;5024946;28;20039;-87
2021/07/16 05:59:59;;;;;;;3.78;2.38;;;24.20;98.00;;;;;;5041001;28;20028;-85
2021/07/16 06:02:24;;;;;;;2.90;1.88;;;24.20;97.90;;;;;;5058380;28;20020;-85
2021/07/16 06:04:51;;;;;;;2.08;1.40;;;24.20;97.90;;;;;;5041586;28;20071;-86
2021/07/16 06:07:16;;;;;;;1.95;1.50;;;24.20;98.00;;;;;;5075233;28;20132;-88
2021/07/16 06:09:42;;;;;;;2.05;1.67;;;24.20;98.10;;;;;;5042881;28;20458;-85
2021/07/16 06:12:11;;;;;;;2.35;1.98;;;24.20;98.10;;;;;;5059403;28;20390;-86
2021/07/16 06:14:36;;;;;;;2.33;1.80;;;24.20;98.10;;;;;;5058257;28;20448;-87
2021/07/16 06:17:02;;;;;;;2.92;2.33;;;24.30;98.20;;;;;;5057695;28;20056;-87
2021/07/16 06:19:28;;;;;;;2.72;2.10;;;24.30;98.20;;;;;;5075552;28;20035;-87
2021/07/16 06:21:54;;;;;;;3.70;2.30;;;24.30;98.20;;;;;;5024389;28;20064;-87
2021/07/16 07:00:18;;;;;;;8.10;3.97;;;27.60;94.60;;;;;;5150406;27;20198;-86
2021/07/16 07:02:44;;;;;;;8.23;3.60;;;27.50;94.20;;;;;;5022980;28;2427366;-87
2021/07/16 07:05:11;;;;;;;11.77;3.20;;;27.20;94.10;;;;;;5094104;28;20046;-86
2021/07/16 07:07:36;;;;;;;6.38;3.00;;;26.80;94.30;;;;;;5092804;28;20089;-88
2021/07/16 07:10:02;;;;;;;6.63;2.90;;;26.30;94.50;;;;;;5111555;28;20031;-89
2021/07/16 07:12:28;;;;;;;6.13;2.58;;;26.00;94.70;;;;;;5109761;28;20080;-88
2021/07/16 07:14:54;;;;;;;8.15;3.08;;;25.70;95.00;;;;;;5092538;28;20389;-87
2021/07/16 07:17:20;;;;;;;6.25;2.78;;;25.50;95.20;;;;;;5093581;28;20427;-87
2021/07/16 07:19:46;;;;;;;5.43;2.78;;;25.30;95.40;;;;;;5110952;28;20027;-86
2021/07/16 07:22:12;;;;;;;4.18;2.40;;;25.10;95.50;;;;;;5109598;28;20445;-86
2021/07/16 07:24:40;;;;;;;5.63;2.47;;;25.00;95.70;;;;;;5109880;28;20030;-86
2021/07/16 07:27:06;;;;;;;4.32;2.33;;;24.80;95.80;;;;;;5092761;28;20031;-87
2021/07/16 07:29:33;;;;;;;5.53;3.03;;;24.80;95.90;;;;;;5109670;28;20047;-87
2021/07/16 07:31:59;;;;;;;4.53;2.50;;;24.70;96.20;;;;;;5109770;28;20028;-86
2021/07/16 07:34:25;;;;;;;5.30;2.58;;;24.60;96.00;;;;;;5109384;28;20032;-86
2021/07/16 07:36:52;;;;;;;3.72;2.50;;;24.60;96.10;;;;;;5075864;28;20036;-90
2021/07/16 07:39:18;;;;;;;4.25;2.50;;;24.50;96.10;;;;;;5108618;28;20127;-90
2021/07/16 07:41:49;;;;;;;6.15;2.55;;;24.50;96.20;;;;;;5092798;28;20035;-89
2021/07/16 07:44:16;;;;;;;4.45;2.35;;;24.40;96.20;;;;;;5109328;28;20027;-89
2021/07/16 07:46:42;;;;;;;3.88;2.42;;;24.40;96.20;;;;;;5109450;28;20427;-89
2021/07/16 07:49:13;;;;;;;5.20;2.42;;;24.40;96.20;;;;;;5109568;28;20047;-91
2021/07/16 07:51:41;;;;;;;6.47;2.33;;;24.40;96.30;;;;;;5110404;28;20385;-89
2021/07/16 07:54:07;;;;;;;4.75;2.60;;;24.40;96.30;;;;;;5109600;28;20464;-89
2021/07/16 07:56:33;;;;;;;5.10;2.40;;;24.40;96.40;;;;;;5109972;28;20024;-89
2021/07/16 07:59:01;;;;;;;3.97;1.98;;;24.40;96.50;;;;;;5109634;28;20039;-89
2021/07/16 08:01:27;;;;;;;3.90;2.35;;;24.30;96.50;;;;;;5091407;28;20198;-90
2021/07/16 08:03:52;;;;;;;7.15;2.55;;;24.30;96.50;;;;;;5093007;28;20073;-90
2021/07/16 08:06:18;;;;;;;3.80;2.40;;;24.30;96.50;;;;;;5110658;28;20028;-89
2021/07/16 08:08:46;;;;;;;4.45;2.50;;;24.30;96.60;;;;;;5109334;28;20128;-90
2021/07/16 08:11:12;;;;;;;5.40;2.60;;;24.30;96.60;;;;;;5097876;28;20028;-90
2021/07/16 08:13:38;;;;;;;3.85;2.30;;;24.30;96.60;;;;;;5112596;28;20036;-90
2021/07/16 08:16:04;;;;;;;4.00;2.50;;;24.30;96.60;;;;;;5095436;28;20484;-90
2021/07/16 08:18:30;;;;;;;3.78;2.30;;;24.30;96.60;;;;;;5095894;28;20056;-90
2021/07/16 08:20:56;;;;;;;4.47;2.25;;;24.30;96.60;;;;;;5095741;28;20129;-89
2021/07/16 08:23:23;;;;;;;6.22;2.13;;;24.30;96.60;;;;;;5078465;28;20029;-89
2021/07/16 08:25:48;;;;;;;6.00;2.17;;;24.30;96.60;;;;;;5095954;28;20024;-90
2021/07/16 08:28:14;;;;;;;4.50;2.58;;;24.30;96.60;;;;;;5078705;28;20042;-89
2021/07/16 08:30:43;;;;;;;8.60;2.83;;;24.30;96.60;;;;;;5096484;28;20031;-89
2021/07/16 08:33:09;;;;;;;4.15;2.30;;;24.30;96.70;;;;;;5095865;28;20024;-90
2021/07/16 08:35:35;;;;;;;4.57;2.47;;;24.30;96.70;;;;;;5096359;28;20024;-91
2021/07/16 08:38:01;;;;;;;5.22;2.58;;;24.30;96.70;;;;;;5097265;28;20489;-88
2021/07/16 08:40:28;;;;;;;3.22;2.17;;;24.30;96.70;;;;;;5109333;28;20024;-89
2021/07/16 08:42:56;;;;;;;4.95;1.95;;;24.30;96.70;;;;;;5101263;28;20024;-87
2021/07/16 08:45:22;;;;;;;4.45;2.08;;;24.30;96.70;;;;;;5099202;28;20029;-85
2021/07/16 08:47:49;;;;;;;4.20;2.33;;;24.30;96.70;;;;;;5079352;28;20390;-88
2021/07/16 08:50:15;;;;;;;4.68;2.50;;;24.30;96.70;;;;;;5096258;28;20119;-88
2021/07/16 08:52:45;;;;;;;4.57;2.50;;;24.30;96.70;;;;;;5077763;28;20101;-86
2021/07/16 08:55:12;;;;;;;4.10;1.98;;;24.30;96.70;;;;;;5095698;28;20024;-86
2021/07/16 08:57:37;;;;;;;4.20;2.30;;;24.40;96.80;;;;;;5095281;28;20537;-86
2021/07/16 09:00:11;;;;;;;2.88;2.03;;;24.40;96.90;;;;;;5095384;28;20067;-88
2021/07/16 09:02:50;;;;;;;5.55;2.22;;;24.40;97.00;;;;;;5078563;28;20048;-89
2021/07/16 09:05:16;;;;;;;2.95;2.13;;;24.40;97.00;;;;;;5095350;28;20081;-88
2021/07/16 09:07:43;;;;;;;2.35;1.70;;;24.40;97.00;;;;;;5077984;28;20502;-90
2021/07/16 09:10:17;;;;;;;3.10;1.92;;;24.40;97.30;;;;;;5094812;28;20024;-89
2021/07/16 09:12:42;;;;;;;3.20;1.90;;;24.30;97.10;;;;;;5079478;28;20128;-88
2021/07/16 09:15:15;;;;;;;3.28;1.85;;;24.40;97.10;;;;;;5094603;28;20020;-90
2021/07/16 09:17:43;;;;;;;2.88;1.50;;;24.40;97.00;;;;;;5077623;28;20066;-89
2021/07/16 09:20:26;;;;;;;3.17;1.58;;;24.40;97.00;;;;;;5095636;28;20073;-89
2021/07/16 09:23:09;;;;;;;2.58;1.67;;;24.40;97.00;;;;;;5110413;28;20116;-88
2021/07/16 09:25:36;;;;;;;3.67;1.60;;;24.40;97.00;;;;;;5093997;28;20028;-89
2021/07/16 09:28:02;;;;;;;2.70;1.58;;;24.40;97.10;;;;;;5095065;28;20028;-90
2021/07/16 09:30:29;;;;;;;3.67;1.77;;;24.30;97.10;;;;;;5095260;28;20470;-89
2021/07/16 09:33:05;;;;;;;2.28;1.60;;;24.40;97.10;;;;;;5094592;28;20073;-89
2021/07/16 09:35:44;;;;;;;2.40;1.45;;;24.30;97.10;;;;;;5093902;28;20122;-89
2021/07/16 09:38:12;;;;;;;3.20;1.85;;;24.30;97.10;;;;;;5094811;28;20036;-89
2021/07/16 09:40:53;;;;;;;3.38;2.05;;;24.30;97.10;;;;;;5076939;28;20115;-89
2021/07/16 09:43:24;;;;;;;1.95;1.42;;;24.30;97.10;;;;;;5094732;28;20024;-90
2021/07/16 09:46:08;;;;;;;2.60;1.50;;;24.30;97.10;;;;;;5096244;28;20031;-90
2021/07/16 09:48:41;;;;;;;2.30;1.58;;;24.30;97.10;;;;;;5089476;28;20028;-90
2021/07/16 09:51:27;;;;;;;1.85;1.20;;;24.30;97.10;;;;;;5055731;28;20102;-90
2021/07/16 09:53:52;;;;;;;2.30;1.90;;;24.30;97.10;;;;;;5073029;28;20024;-89
2021/07/16 09:56:27;;;;;;;2.47;1.30;;;24.30;97.40;;;;;;5073124;28;20035;-92
2021/07/16 09:58:59;;;;;;;;;;;24.30;97.20;;;;;;5074525;28;20090;-88
2021/07/16 10:01:27;;;;;;;2.03;1.40;;;24.30;97.20;;;;;;5055675;28;19908;-88
2021/07/16 10:03:57;;;;;;;2.63;1.60;;;24.30;97.30;;;;;;5074742;28;20158;-89
2021/07/16 10:06:25;;;;;;;1.67;1.20;;;24.30;97.30;;;;;;5075863;28;20028;-90
2021/07/16 10:08:53;;;;;;;2.38;1.25;;;24.30;97.30;;;;;;5057285;28;20359;-90
2021/07/16 10:11:20;;;;;;;2.63;1.60;;;24.30;97.30;;;;;;5059138;28;20036;-90
2021/07/16 10:13:47;;;;;;;2.28;1.40;;;24.30;97.30;;;;;;5074563;28;20032;-91
2021/07/16 10:16:14;;;;;;;2.03;1.40;;;24.30;97.40;;;;;;5057568;28;20477;-90
2021/07/16 10:18:40;;;;;;;1.85;1.40;;;24.40;97.50;;;;;;5073274;28;20038;-90
2021/07/16 10:21:07;;;;;;;2.13;1.35;;;24.40;97.60;;;;;;5058440;28;20058;-90
2021/07/16 10:23:43;;;;;;;3.45;1.15;;;24.40;97.60;;;;;;5072741;28;20497;-91
2021/07/16 10:26:10;;;;;;;1.95;1.30;;;24.40;97.70;;;;;;5056601;28;20463;-89
2021/07/16 10:28:42;;;;;;;2.00;1.50;;;24.40;97.70;;;;;;5073968;28;20089;-90
2021/07/16 10:31:29;;;;;;;1.83;1.23;;;24.40;97.80;;;;;;5056056;28;20478;-90
2021/07/16 10:34:28;;;;;;;1.38;1.00;;;24.40;97.80;;;;;;5075039;28;20070;-89
2021/07/16 10:36:58;;;;;;;3.08;1.33;;;24.40;98.00;;;;;;5075195;28;20458;-92
2021/07/16 10:39:47;;;;;;;2.80;1.50;;;24.40;98.10;;;;;;5074406;28;20375;-92
2021/07/16 10:42:31;;;;;;;1.63;1.10;;;24.40;98.20;;;;;;5078223;28;20496;-92
2021/07/16 10:45:03;;;;;;;2.38;1.33;;;24.40;98.20;;;;;;5074606;28;20046;-91
2021/07/16 10:47:51;;;;;;;1.55;1.27;;;24.50;98.30;;;;;;5075209;28;20028;-93
2021/07/16 10:50:32;;;;;;;1.20;1.10;;;24.50;98.40;;;;;;5074073;28;20029;-93
2021/07/16 10:52:58;;;;;;;1.92;1.17;;;24.50;98.40;;;;;;5073025;28;20029;-91
2021/07/16 10:55:43;;;;;;;1.88;1.30;;;24.50;98.40;;;;;;5073546;28;20025;-95
2021/07/16 10:58:49;;;;;;;1.30;1.10;;;24.50;98.50;;;;;;5073878;28;20025;-93
2021/07/16 11:05:43;;;;;;;1.95;1.30;;;24.50;98.50;;;;;;5078267;28;20060;-93
2021/07/16 11:08:40;;;;;;;2.25;1.20;;;24.50;98.50;;;;;;5090155;28;20055;-93
2021/07/16 11:11:14;;;;;;;2.38;1.23;;;24.50;98.50;;;;;;5088921;28;20047;-90
2021/07/16 11:14:00;;;;;;;2.05;1.30;;;24.50;98.40;;;;;;5078820;28;20126;-92
2021/07/16 11:16:32;;;;;;;2.25;1.30;;;24.50;98.30;;;;;;5088708;28;20556;-92
2021/07/16 11:19:19;;;;;;;3.60;1.45;;;24.50;98.30;;;;;;5086335;28;20028;-91
2021/07/16 11:21:52;;;;;;;1.60;1.08;;;24.50;98.30;;;;;;5087666;28;20047;-91
2021/07/16 11:24:58;;;;;;;1.80;1.15;;;24.50;98.30;;;;;;5083253;28;20039;-91
2021/07/16 11:27:26;;;;;;;1.30;1.20;;;24.50;98.30;;;;;;5086326;28;20072;-90
2021/07/16 11:30:04;;;;;;;1.65;1.00;;;24.50;98.30;;;;;;5082272;28;20036;-92
2021/07/16 11:32:35;;;;;;;1.98;1.45;;;24.50;98.40;;;;;;5082018;28;20028;-93
2021/07/16 11:35:31;;;;;;;;;;;;;;;;;;;;;
2021/07/16 11:38:17;;;;;;;;;;;;;;;;;;;;;
2021/07/16 11:40:57;;;;;;;1.83;1.55;;;24.50;98.30;;;;;;5100867;28;20119;-93
2021/07/16 11:43:31;;;;;;;2.33;1.50;;;24.50;98.30;;;;;;5085664;28;20051;-90
2021/07/16 11:46:19;;;;;;;2.77;1.40;;;24.50;98.30;;;;;;5073703;28;20088;-93
2021/07/16 11:48:53;;;;;;;2.38;1.48;;;24.50;98.20;;;;;;5081936;28;20032;-92
2021/07/16 11:51:32;;;;;;;1.70;1.60;;;24.50;98.20;;;;;;5078684;28;20039;-92
2021/07/16 11:54:33;;;;;;;2.20;1.75;;;24.50;98.20;;;;;;5071405;28;20032;-92
2021/07/16 11:57:17;;;;;;;1.40;1.23;;;24.50;98.20;;;;;;5072804;28;20036;-93
2021/07/16 12:03:24;;;;;;;1.60;1.23;;;24.50;98.20;;;;;;5113466;28;20083;-96
2021/07/16 12:06:16;;;;;;;;;;;;;;;;;;;;;
2021/07/16 12:08:58;;;;;;;1.63;1.40;;;24.50;98.20;;;;;;5084517;28;20047;-92
2021/07/16 12:11:23;;;;;;;1.90;1.52;;;24.50;98.20;;;;;;5080533;28;20470;-92
2021/07/16 12:14:04;;;;;;;2.53;1.70;;;24.50;98.20;;;;;;5080241;28;20028;-93
2021/07/16 12:16:32;;;;;;;2.08;1.58;;;24.50;98.20;;;;;;5080846;28;20466;-93
2021/07/16 12:19:05;;;;;;;1.80;1.40;;;24.50;98.20;;;;;;5098244;28;20031;-93
2021/07/16 12:21:31;;;;;;;2.33;1.48;;;24.50;98.20;;;;;;5081691;28;20039;-92
2021/07/16 12:23:59;;;;;;;1.83;1.35;;;24.50;98.20;;;;;;5100167;28;20020;-93
2021/07/16 12:26:28;;;;;;;1.80;1.40;;;24.50;98.20;;;;;;5066098;28;20032;-93
2021/07/16 12:29:09;;;;;;;2.45;1.55;;;24.60;98.20;;;;;;5064398;28;20039;-93
2021/07/16 12:31:50;;;;;;;1.65;1.33;;;24.50;98.20;;;;;;5079892;28;20529;-93
2021/07/16 12:34:21;;;;;;;1.30;1.20;;;24.60;98.20;;;;;;5080439;28;20542;-93
2021/07/16 12:36:49;;;;;;;1.33;1.20;;;24.50;98.20;;;;;;5097926;28;20066;-92
2021/07/16 12:39:22;;;;;;;2.78;1.38;;;24.60;98.20;;;;;;5079926;28;20028;-92
2021/07/16 12:42:15;;;;;;;1.92;1.30;;;24.50;98.20;;;;;;5079853;28;20027;-92
2021/07/16 12:45:07;;;;;;;1.85;1.33;;;24.60;98.20;;;;;;5080269;28;20035;-92
2021/07/16 12:47:34;;;;;;;1.90;1.50;;;24.60;98.20;;;;;;5080917;28;20358;-92
2021/07/16 12:50:11;;;;;;;1.92;1.30;;;24.60;98.20;;;;;;5080983;28;20122;-92
2021/07/16 12:52:38;;;;;;;2.10;1.30;;;24.50;98.20;;;;;;5067501;28;20082;-92
2021/07/16 12:55:19;;;;;;;1.73;1.27;;;24.60;98.20;;;;;;5094104;28;20052;-93
2021/07/16 12:58:01;;;;;;;1.63;1.10;;;24.60;98.40;;;;;;5086376;28;20385;-93
2021/07/16 13:00:27;;;;;;;1.25;1.15;;;24.60;98.20;;;;;;5080703;28;20119;-92
2021/07/16 13:03:14;;;;;;;1.92;1.35;;;24.50;98.20;;;;;;5079216;28;20032;-91
2021/07/16 13:05:43;;;;;;;1.77;1.60;;;24.60;98.20;;;;;;5078811;28;20052;-92
2021/07/16 13:08:21;;;;;;;1.40;1.23;;;24.60;98.20;;;;;;5079271;28;20028;-92
2021/07/16 13:10:52;;;;;;;2.55;1.50;;;24.60;98.30;;;;;;5096985;28;20024;-92
2021/07/16 13:13:42;;;;;;;2.20;1.63;;;24.60;98.30;;;;;;5080041;28;20031;-93
2021/07/16 13:16:22;;;;;;;1.75;1.00;;;24.60;98.30;;;;;;5085245;28;20031;-92
2021/07/16 13:18:53;;;;;;;1.48;1.20;;;24.60;98.20;;;;;;5079253;28;20039;-92
2021/07/16 13:21:19;;;;;;;1.50;1.40;;;24.60;98.20;;;;;;5079505;28;20560;-90
2021/07/16 13:23:46;;;;;;;1.40;1.27;;;24.60;98.40;;;;;;5079095;28;20035;-91
2021/07/16 13:26:16;;;;;;;1.25;1.10;;;24.60;98.40;;;;;;5097430;28;20024;-94
2021/07/16 13:28:45;;;;;;;3.08;1.52;;;24.60;98.20;;;;;;5079062;28;20051;-91
2021/07/16 13:31:16;;;;;;;1.75;1.00;;;24.60;98.20;;;;;;5080508;28;20488;-90
2021/07/16 13:33:42;;;;;;;1.80;1.20;;;24.60;98.20;;;;;;5080407;28;20028;-92
2021/07/16 13:36:13;;;;;;;1.85;1.30;;;24.60;98.20;;;;;;5079696;28;20559;-92
2021/07/16 13:38:41;;;;;;;1.40;1.20;;;24.60;98.10;;;;;;5062869;28;20477;-93
2021/07/16 13:41:07;;;;;;;1.30;1.10;;;24.60;98.10;;;;;;5062148;28;20238;-92
2021/07/16 13:43:36;;;;;;;2.13;1.10;;;24.60;98.10;;;;;;5078313;28;20024;-90
2021/07/16 13:46:02;;;;;;;1.63;1.42;;;24.60;98.10;;;;;;5061622;28;20067;-90
2021/07/16 13:48:27;;;;;;;1.30;1.10;;;24.50;98.10;;;;;;5079405;28;20031;-90